Time;durP1;ratioP1;P1;durP2;ratioP2;P2;SDS_P1;SDS_P2;PMS_P1;PMS_P2;Temp;Humidity;BMP_temperature;BMP_pressure;BME280_temperature;BME280_humidity;BME280_pressure;Samples;Min_cycle;Max_cycle;Signal;HPM_P1;HPM_P2
2021/08/09 00:00:27;;;;;;;3.72;2.28;;;17.30;79.80;;;16.88;66.67;95259.22;4981862;28;20216;-85
2021/08/09 00:02:55;;;;;;;3.40;2.13;;;17.30;79.80;;;16.84;66.90;95244.81;4998562;28;20200;-84
2021/08/09 00:05:22;;;;;;;2.40;2.20;;;17.20;79.70;;;16.81;66.55;95246.84;4982806;28;20307;-85
2021/08/09 00:07:49;;;;;;;2.22;1.90;;;17.20;79.80;;;16.77;66.53;95248.34;4999002;28;20197;-85
2021/08/09 00:10:16;;;;;;;3.22;2.33;;;17.10;79.90;;;16.74;66.74;95245.34;5014374;28;20216;-85
2021/08/09 00:12:44;;;;;;;2.53;2.28;;;17.10;80.00;;;16.70;66.86;95239.66;4999006;28;20291;-85
2021/08/09 00:15:12;;;;;;;5.20;2.30;;;17.10;80.00;;;16.68;66.63;95249.66;5014866;28;20216;-85
2021/08/09 00:17:39;;;;;;;1.98;1.80;;;17.00;80.00;;;16.65;66.23;95242.19;4998417;28;20248;-84
2021/08/09 00:20:08;;;;;;;4.97;2.15;;;17.00;79.90;;;16.64;66.99;95245.84;5030966;28;20219;-85
2021/08/09 00:22:35;;;;;;;2.90;1.90;;;17.00;80.20;;;16.64;66.45;95244.00;5014241;28;20276;-85
2021/08/09 00:25:02;;;;;;;3.63;2.30;;;17.00;80.20;;;16.62;66.90;95242.59;4981958;28;20289;-85
2021/08/09 00:27:29;;;;;;;2.47;1.85;;;16.90;80.30;;;16.59;67.06;95245.72;5014553;28;20224;-85
2021/08/09 00:29:56;;;;;;;5.03;1.90;;;16.90;80.30;;;16.61;67.00;95248.94;5014326;28;20219;-85
2021/08/09 00:32:24;;;;;;;3.17;2.10;;;16.90;80.40;;;16.57;67.27;95245.13;4982023;28;20204;-85
2021/08/09 00:34:52;;;;;;;2.85;1.90;;;16.90;80.40;;;16.60;67.02;95247.31;4998521;28;20228;-85
2021/08/09 00:37:19;;;;;;;2.30;2.05;;;16.80;80.40;;;16.57;66.57;95253.84;4998068;28;20290;-83
2021/08/09 00:39:46;;;;;;;2.40;2.20;;;16.80;80.20;;;16.55;66.48;95258.59;4998077;28;20219;-85
2021/08/09 00:42:15;;;;;;;3.17;1.70;;;16.80;80.30;;;16.53;66.70;95255.34;4982559;28;20196;-85
2021/08/09 00:44:43;;;;;;;4.53;1.70;;;16.80;80.20;;;16.49;66.96;95259.47;5014697;28;20221;-86
2021/08/09 00:47:13;;;;;;;2.28;1.65;;;16.80;80.20;;;16.49;66.50;95264.75;4998782;28;20224;-84
2021/08/09 00:49:40;;;;;;;1.75;1.60;;;16.80;80.30;;;16.49;66.86;95267.41;4997247;28;20213;-85
2021/08/09 00:52:08;;;;;;;1.95;1.77;;;16.80;80.30;;;16.47;66.47;95256.22;4981850;28;20203;-85
2021/08/09 00:54:37;;;;;;;4.63;2.05;;;16.70;80.30;;;16.47;66.53;95254.38;4982271;28;20193;-85
2021/08/09 00:57:07;;;;;;;4.47;2.35;;;16.70;80.30;;;16.49;66.69;95248.88;5014021;28;20255;-85
2021/08/09 00:59:37;;;;;;;2.90;1.70;;;16.70;80.30;;;16.48;66.20;95237.47;4982345;28;20201;-85
2021/08/09 01:02:04;;;;;;;2.33;1.80;;;16.70;80.40;;;16.49;66.34;95233.00;5013861;28;20556;-84
2021/08/09 01:04:33;;;;;;;1.73;1.63;;;16.70;80.30;;;16.50;66.20;95242.53;4982311;28;20188;-85
2021/08/09 01:07:01;;;;;;;2.63;1.63;;;16.70;80.20;;;16.49;65.78;95238.28;4997975;28;20740;-84
2021/08/09 01:09:32;;;;;;;3.60;1.75;;;16.70;80.10;;;16.46;65.97;95238.72;4998017;28;20223;-85
2021/08/09 01:12:04;;;;;;;2.42;1.60;;;16.70;80.20;;;16.41;65.84;95239.38;5012800;28;20218;-85
2021/08/09 01:15:19;;;;;;;2.40;1.70;;;16.70;80.30;;;16.32;66.05;95241.50;4997600;28;20220;-85
2021/08/09 01:17:52;;;;;;;2.05;1.85;;;16.60;80.40;;;16.27;66.48;95237.88;4997784;28;20303;-84
2021/08/09 01:20:53;;;;;;;1.92;1.70;;;16.60;80.20;;;16.22;66.50;95245.69;4997013;28;20221;-84
2021/08/09 01:23:53;;;;;;;2.72;1.70;;;16.60;80.40;;;16.16;66.82;95240.25;4997232;28;20208;-85
2021/08/09 01:26:59;;;;;;;2.33;1.90;;;16.60;80.60;;;16.15;66.47;95235.19;4996546;28;20232;-85
2021/08/09 01:29:46;;;;;;;2.80;2.15;;;16.50;80.60;;;16.10;66.45;95246.41;4981926;28;20200;-84
2021/08/09 01:32:19;;;;;;;1.90;1.80;;;16.50;80.50;;;16.10;66.42;95254.34;4996827;28;20296;-84
2021/08/09 01:34:47;;;;;;;3.17;2.10;;;16.50;80.40;;;16.05;66.68;95245.44;4981003;28;20217;-85
2021/08/09 01:37:19;;;;;;;2.80;2.20;;;16.40;80.30;;;16.04;66.69;95244.63;5012860;28;20197;-84
2021/08/09 01:39:49;;;;;;;1.83;1.73;;;16.40;80.50;;;15.99;67.19;95241.81;4981189;28;20628;-85
2021/08/09 01:42:17;;;;;;;2.75;1.77;;;16.40;80.50;;;16.00;67.20;95246.06;4981193;28;20547;-84
2021/08/09 01:44:47;;;;;;;2.05;1.80;;;16.40;80.60;;;15.99;66.86;95245.28;4997020;28;20224;-85
2021/08/09 01:47:17;;;;;;;2.05;1.70;;;16.40;80.60;;;15.96;66.92;95263.44;4997082;28;20231;-85
2021/08/09 01:49:46;;;;;;;2.15;1.70;;;16.30;80.50;;;15.93;67.17;95261.19;4997009;28;20222;-84
2021/08/09 01:52:14;;;;;;;2.97;1.88;;;16.30;80.60;;;15.92;66.17;95260.41;4996862;28;20228;-85
2021/08/09 01:54:42;;;;;;;2.33;2.10;;;16.30;80.50;;;15.92;66.54;95270.97;5012856;28;20336;-84
2021/08/09 01:57:10;;;;;;;2.35;2.10;;;16.20;80.40;;;15.89;66.70;95266.09;4980717;28;20213;-85
2021/08/09 01:59:37;;;;;;;2.40;1.80;;;16.20;80.50;;;15.85;66.97;95257.00;4980227;28;20502;-85
2021/08/09 02:02:05;;;;;;;1.92;1.77;;;16.20;80.50;;;15.83;66.55;95266.97;4980129;28;20200;-84
2021/08/09 02:04:33;;;;;;;3.22;1.90;;;16.20;80.50;;;15.79;66.46;95263.91;4996358;28;20201;-85
2021/08/09 02:07:01;;;;;;;2.25;1.70;;;16.10;80.40;;;15.76;66.62;95259.06;4996874;28;20244;-85
2021/08/09 02:09:29;;;;;;;3.42;1.88;;;16.10;80.30;;;15.73;66.12;95259.50;4996381;28;20207;-85
2021/08/09 02:12:06;;;;;;;2.03;1.83;;;16.10;80.30;;;15.68;66.05;95267.28;4996204;28;20193;-84
2021/08/09 02:14:46;;;;;;;2.35;1.88;;;16.00;80.50;;;15.60;66.44;95263.06;4997229;28;20768;-84
2021/08/09 02:17:21;;;;;;;2.47;1.83;;;16.00;80.30;;;15.57;66.33;95267.97;4995865;28;20262;-84
2021/08/09 02:20:01;;;;;;;2.15;1.73;;;16.00;80.30;;;15.52;66.43;95285.25;4980041;28;20286;-84
2021/08/09 02:22:33;;;;;;;2.40;1.52;;;15.90;80.60;;;15.49;66.38;95284.88;4996256;28;20202;-84
2021/08/09 02:25:14;;;;;;;2.17;1.80;;;15.90;80.40;;;15.42;66.27;95277.00;5012228;28;20879;-84
2021/08/09 02:27:54;;;;;;;1.88;1.70;;;15.80;80.60;;;15.42;66.12;95276.22;4980485;28;20703;-84
2021/08/09 02:30:24;;;;;;;4.57;1.70;;;15.80;80.40;;;15.41;66.52;95278.03;4980304;28;20235;-84
2021/08/09 02:32:57;;;;;;;1.88;1.60;;;15.80;80.30;;;15.42;66.57;95286.78;4996277;28;20675;-84
2021/08/09 02:35:26;;;;;;;3.20;1.80;;;15.70;80.40;;;15.42;66.60;95298.16;4996344;28;20224;-83
2021/08/09 02:37:57;;;;;;;2.05;1.88;;;15.70;80.40;;;15.43;66.50;95296.31;4980499;28;20197;-84
2021/08/09 02:40:25;;;;;;;2.42;1.80;;;15.70;80.60;;;15.45;66.82;95297.75;4980097;28;20217;-84
2021/08/09 02:42:55;;;;;;;2.38;1.58;;;15.70;80.70;;;15.43;66.46;95288.38;4980585;28;20667;-84
2021/08/09 02:45:24;;;;;;;3.45;1.73;;;15.70;80.80;;;15.47;66.52;95297.53;4995886;28;20231;-85
2021/08/09 02:47:52;;;;;;;1.45;1.35;;;15.80;80.90;;;15.48;66.65;95301.78;4995952;28;20220;-84
2021/08/09 02:50:19;;;;;;;1.95;1.77;;;15.70;80.90;;;15.47;66.35;95306.25;4995894;28;20231;-84
2021/08/09 02:52:47;;;;;;;1.92;1.52;;;15.70;80.80;;;15.52;66.79;95316.19;4996029;28;20207;-84
2021/08/09 02:55:18;;;;;;;4.20;1.85;;;15.70;80.90;;;15.53;66.68;95304.59;5011933;28;20817;-85
2021/08/09 02:57:48;;;;;;;5.00;1.65;;;15.70;81.10;;;15.55;66.77;95307.03;4995816;28;20678;-85
2021/08/09 03:00:15;;;;;;;2.90;1.50;;;15.70;81.20;;;15.50;66.55;95299.72;4995839;28;20224;-84
2021/08/09 03:02:44;;;;;;;3.67;1.83;;;15.70;81.10;;;15.60;66.75;95301.91;4995824;28;20201;-84
2021/08/09 03:05:14;;;;;;;2.72;1.40;;;15.90;81.40;;;15.63;66.76;95302.28;4995840;28;20225;-84
2021/08/09 03:07:45;;;;;;;3.13;1.70;;;15.80;81.10;;;15.64;66.59;95300.47;5012432;28;20310;-85
2021/08/09 03:10:13;;;;;;;1.42;1.33;;;15.80;81.00;;;15.64;66.69;95301.25;4995665;28;20224;-84
2021/08/09 03:12:42;;;;;;;2.38;1.50;;;15.90;81.00;;;15.64;66.32;95297.81;4995921;28;20721;-84
2021/08/09 03:15:10;;;;;;;2.25;1.40;;;15.90;80.90;;;15.71;66.43;95311.81;4979474;28;20683;-85
2021/08/09 03:17:39;;;;;;;1.40;1.30;;;15.90;80.90;;;15.73;66.57;95308.94;4979666;28;20208;-85
2021/08/09 03:20:07;;;;;;;3.55;1.40;;;15.90;80.90;;;15.75;66.29;95312.19;4995912;28;20211;-84
2021/08/09 03:22:35;;;;;;;6.32;2.05;;;15.90;80.90;;;15.77;66.25;95315.41;4979575;28;20200;-84
2021/08/09 03:25:04;;;;;;;4.30;1.70;;;15.90;80.90;;;15.76;66.46;95313.78;4995878;28;20234;-85
2021/08/09 03:27:32;;;;;;;1.80;1.60;;;15.90;80.90;;;15.81;66.55;95314.78;4979832;28;20231;-85
2021/08/09 03:29:59;;;;;;;1.65;1.52;;;16.00;81.00;;;15.81;66.05;95312.13;4995491;28;20705;-85
2021/08/09 03:32:26;;;;;;;2.47;1.60;;;16.00;81.00;;;15.83;66.05;95318.06;4995661;28;20715;-85
2021/08/09 03:34:55;;;;;;;2.35;1.30;;;16.10;81.00;;;15.84;66.17;95314.41;5027909;28;20216;-84
2021/08/09 03:37:22;;;;;;;1.55;1.45;;;16.00;80.90;;;15.85;66.46;95320.47;4995321;28;20207;-85
2021/08/09 03:39:49;;;;;;;4.85;1.30;;;16.00;80.90;;;15.84;66.28;95316.22;4995340;28;20220;-83
2021/08/09 03:42:20;;;;;;;1.92;1.27;;;16.00;80.90;;;15.86;66.61;95316.03;4995671;28;20612;-84
2021/08/09 03:44:49;;;;;;;1.63;1.35;;;16.00;80.90;;;15.85;66.22;95317.84;4995903;28;20208;-84
2021/08/09 03:47:16;;;;;;;2.05;1.60;;;16.00;80.90;;;15.80;66.29;95312.34;4982150;28;20224;-84
2021/08/09 03:49:43;;;;;;;2.53;1.60;;;16.00;80.90;;;15.80;66.33;95320.28;5015459;28;20315;-84
2021/08/09 03:52:10;;;;;;;1.83;1.70;;;16.00;80.90;;;15.82;66.61;95324.38;4998950;28;20204;-85
2021/08/09 03:54:38;;;;;;;1.65;1.40;;;16.10;81.00;;;15.83;66.57;95315.41;4998963;28;20251;-85
2021/08/09 03:57:05;;;;;;;2.30;1.52;;;16.10;81.10;;;15.87;66.75;95326.38;4982675;28;20231;-84
2021/08/09 03:59:32;;;;;;;2.88;1.50;;;16.10;81.10;;;15.90;66.67;95325.13;4998788;28;20275;-85
2021/08/09 04:01:59;;;;;;;4.53;1.45;;;16.10;81.10;;;15.90;66.53;95323.28;4982631;28;20199;-84
2021/08/09 04:04:27;;;;;;;2.05;1.88;;;16.10;81.10;;;15.92;66.66;95328.38;4999220;28;20204;-85
2021/08/09 04:06:56;;;;;;;2.42;1.77;;;16.10;81.20;;;15.89;66.39;95312.94;4999220;28;20255;-85
2021/08/09 04:09:23;;;;;;;2.35;1.83;;;16.10;81.30;;;15.96;66.77;95317.13;4998636;28;20200;-84
2021/08/09 04:11:51;;;;;;;2.85;1.63;;;16.20;81.30;;;15.96;66.69;95316.34;4982633;28;20291;-84
2021/08/09 04:14:18;;;;;;;1.60;1.50;;;16.10;81.20;;;15.96;66.46;95317.13;4998451;28;20662;-85
2021/08/09 04:16:46;;;;;;;1.80;1.50;;;16.10;81.10;;;15.95;66.10;95312.88;4982742;28;20284;-85
2021/08/09 04:19:13;;;;;;;5.60;1.42;;;16.10;81.10;;;15.95;66.54;95314.72;5014455;28;20722;-84
2021/08/09 04:21:41;;;;;;;2.97;1.80;;;16.20;81.10;;;15.95;66.45;95315.53;4982441;28;20728;-84
2021/08/09 04:24:08;;;;;;;1.90;1.55;;;16.10;81.10;;;15.93;66.37;95314.94;4998391;28;20247;-85
2021/08/09 04:26:35;;;;;;;1.40;1.30;;;16.10;81.10;;;15.94;66.36;95315.72;4998265;28;20690;-84
2021/08/09 04:29:02;;;;;;;2.17;1.60;;;16.10;81.00;;;15.93;66.40;95311.47;4998178;28;20570;-84
2021/08/09 04:31:30;;;;;;;1.60;1.50;;;16.10;81.10;;;15.92;66.93;95308.00;5006621;28;20706;-85
2021/08/09 04:33:57;;;;;;;2.08;1.40;;;16.10;81.10;;;15.90;66.61;95307.41;4999089;28;20196;-85
2021/08/09 04:36:25;;;;;;;3.25;1.48;;;16.10;81.20;;;15.92;66.88;95310.66;4994500;28;20217;-85
2021/08/09 04:38:53;;;;;;;1.60;1.50;;;16.20;81.30;;;15.94;66.62;95307.78;5014376;28;20203;-85
2021/08/09 04:41:20;;;;;;;2.17;2.00;;;16.10;81.30;;;15.96;66.66;95309.19;5014667;28;20216;-85
2021/08/09 04:43:47;;;;;;;1.70;1.60;;;16.10;81.40;;;15.94;66.95;95300.69;5014193;28;20205;-85
2021/08/09 04:46:17;;;;;;;3.30;1.90;;;16.10;81.40;;;16.01;66.58;95305.91;5014909;28;20247;-85
2021/08/09 04:48:44;;;;;;;2.13;1.58;;;16.20;81.50;;;16.06;66.77;95310.56;5030418;28;20225;-85
2021/08/09 04:51:12;;;;;;;3.75;1.60;;;16.30;81.60;;;16.06;66.92;95305.25;5014128;28;20683;-85
2021/08/09 04:53:44;;;;;;;4.07;1.83;;;16.20;81.50;;;16.06;66.95;95302.63;5014010;28;20682;-84
2021/08/09 04:56:12;;;;;;;2.45;1.67;;;16.20;81.60;;;16.08;66.80;95314.59;5013691;28;20754;-84
2021/08/09 04:58:41;;;;;;;4.32;1.73;;;16.30;81.50;;;16.11;66.28;95321.28;5012964;28;20667;-84
2021/08/09 05:01:09;;;;;;;3.05;1.52;;;16.30;81.50;;;16.12;66.77;95322.91;5013480;28;20221;-83
2021/08/09 05:03:38;;;;;;;2.85;1.40;;;16.30;81.50;;;16.15;66.63;95320.66;4997674;28;20215;-83
2021/08/09 05:06:11;;;;;;;1.55;1.45;;;16.30;81.60;;;16.17;66.52;95318.59;5013278;28;20224;-83
2021/08/09 05:08:41;;;;;;;1.80;1.70;;;16.20;81.40;;;16.19;66.46;95330.81;5013194;28;20467;-83
2021/08/09 05:11:11;;;;;;;1.70;1.60;;;16.30;81.50;;;16.16;66.64;95332.88;5013446;28;20290;-85
2021/08/09 05:13:50;;;;;;;3.15;1.67;;;16.30;81.40;;;16.18;66.36;95332.63;5014055;28;20207;-85
2021/08/09 05:16:18;;;;;;;2.78;1.65;;;16.30;81.40;;;16.22;67.14;95341.78;5013734;28;20216;-84
2021/08/09 05:18:45;;;;;;;2.35;1.58;;;16.40;81.60;;;16.28;67.02;95345.38;5013834;28;20196;-85
2021/08/09 05:21:16;;;;;;;2.13;1.65;;;16.40;81.80;;;16.36;66.71;95349.63;5013698;28;20232;-84
2021/08/09 05:23:45;;;;;;;3.63;1.83;;;16.40;82.10;;;16.41;67.06;95341.81;5013478;28;20405;-85
2021/08/09 05:26:12;;;;;;;1.80;1.70;;;16.40;82.00;;;16.49;66.75;95354.78;5013206;28;20706;-85
2021/08/09 05:28:39;;;;;;;2.58;1.83;;;16.50;82.10;;;16.55;66.70;95355.72;5013469;28;20220;-84
2021/08/09 05:31:07;;;;;;;1.80;1.70;;;16.60;82.10;;;16.61;66.52;95350.38;5013410;28;20208;-85
2021/08/09 05:33:34;;;;;;;2.20;2.00;;;16.60;82.20;;;16.64;66.69;95347.28;5013500;28;20288;-86
2021/08/09 05:36:04;;;;;;;2.63;2.17;;;16.70;82.20;;;16.75;66.81;95352.91;5013542;28;20228;-85
2021/08/09 05:38:31;;;;;;;2.85;1.90;;;16.70;82.10;;;16.79;66.86;95354.88;5013595;28;20240;-85
2021/08/09 05:41:02;;;;;;;2.33;1.90;;;16.80;82.10;;;16.86;66.52;95365.41;5013759;28;20287;-85
2021/08/09 05:43:30;;;;;;;2.38;1.70;;;16.80;82.00;;;16.90;66.58;95363.94;5013389;28;20205;-85
2021/08/09 05:45:58;;;;;;;3.10;2.10;;;16.90;82.00;;;16.93;66.60;95354.75;4981201;28;20236;-85
2021/08/09 05:48:27;;;;;;;2.63;2.00;;;16.90;81.90;;;16.97;66.56;95348.00;4981504;28;20224;-85
2021/08/09 05:50:54;;;;;;;3.13;1.90;;;16.90;81.90;;;17.01;66.51;95345.72;5013280;28;20284;-85
2021/08/09 05:53:26;;;;;;;2.67;2.47;;;17.00;82.00;;;17.07;66.55;95353.59;5013094;28;20725;-85
2021/08/09 05:55:54;;;;;;;2.50;1.75;;;17.10;82.10;;;17.10;66.58;95347.84;4997593;28;20221;-85
2021/08/09 05:58:22;;;;;;;2.28;1.95;;;17.10;82.00;;;17.15;66.66;95357.78;5013277;28;20220;-86
2021/08/09 06:00:50;;;;;;;2.00;1.83;;;17.10;82.00;;;17.21;66.43;95354.25;5013030;28;20220;-85
2021/08/09 06:03:22;;;;;;;2.00;1.90;;;17.20;82.10;;;17.25;66.45;95352.78;5029187;28;20197;-84
2021/08/09 06:05:57;;;;;;;3.33;2.08;;;17.20;82.10;;;17.32;66.47;95357.19;5014254;28;20227;-85
2021/08/09 06:08:29;;;;;;;1.73;1.63;;;17.20;82.10;;;17.39;66.72;95356.09;4996909;28;20302;-85
2021/08/09 06:10:57;;;;;;;2.35;2.00;;;17.30;82.20;;;17.47;66.50;95356.78;5012703;28;20217;-84
2021/08/09 06:13:25;;;;;;;2.10;1.92;;;17.30;82.40;;;17.58;66.59;95362.13;5012091;28;20658;-86
2021/08/09 06:15:54;;;;;;;2.83;2.00;;;17.40;82.60;;;17.72;66.62;95368.09;5013021;28;20227;-84
2021/08/09 06:18:25;;;;;;;2.10;1.83;;;17.50;82.80;;;17.89;66.90;95368.25;5012825;28;20316;-85
2021/08/09 06:20:52;;;;;;;2.10;1.90;;;17.70;83.10;;;18.08;66.63;95370.88;5012630;28;20573;-86
2021/08/09 06:23:22;;;;;;;2.15;1.70;;;17.80;83.30;;;18.30;66.92;95373.00;5013065;28;20201;-85
2021/08/09 06:25:50;;;;;;;2.05;1.83;;;17.80;83.50;;;18.50;66.49;95376.09;5028979;28;20235;-86
2021/08/09 06:28:17;;;;;;;3.10;1.80;;;18.00;83.70;;;18.76;66.41;95376.72;4996395;28;20227;-85
2021/08/09 06:30:44;;;;;;;3.08;1.80;;;18.20;83.70;;;18.94;66.23;95380.31;5012625;28;20227;-85
2021/08/09 06:33:16;;;;;;;3.63;1.75;;;18.40;83.70;;;19.15;66.01;95384.19;5012287;28;20252;-85
2021/08/09 06:35:44;;;;;;;1.70;1.60;;;18.60;83.70;;;19.38;66.09;95383.31;5012416;28;20228;-86
2021/08/09 06:38:14;;;;;;;1.73;1.60;;;18.80;83.70;;;19.62;66.31;95383.25;4996381;28;20689;-86
2021/08/09 06:40:44;;;;;;;3.03;1.92;;;19.00;83.70;;;19.87;65.83;95387.47;5012487;28;20217;-84
2021/08/09 06:43:12;;;;;;;2.33;2.00;;;19.10;83.60;;;20.06;65.58;95383.56;5012398;28;20685;-84
2021/08/09 06:45:47;;;;;;;2.03;1.92;;;19.30;83.50;;;20.22;64.80;95387.28;5012099;28;20388;-85
2021/08/09 06:48:17;;;;;;;2.50;2.28;;;19.50;83.10;;;20.30;64.83;95396.75;5011674;28;20225;-85
2021/08/09 06:50:45;;;;;;;3.58;2.00;;;19.80;82.80;;;20.40;64.60;95393.44;5012196;28;20225;-85
2021/08/09 06:53:12;;;;;;;5.60;2.22;;;19.90;82.40;;;20.47;64.78;95408.22;5012387;28;20203;-85
2021/08/09 06:55:45;;;;;;;2.03;1.85;;;20.00;81.80;;;20.53;64.23;95408.28;5012438;28;20275;-84
2021/08/09 06:58:13;;;;;;;2.20;1.80;;;20.10;81.80;;;20.53;64.45;95413.63;5012172;28;20206;-85
2021/08/09 07:00:41;;;;;;;2.15;2.03;;;20.20;81.50;;;20.55;64.21;95406.19;5012380;28;20248;-85
2021/08/09 07:03:11;;;;;;;3.47;1.90;;;20.20;81.20;;;20.59;64.08;95408.13;5011959;28;20204;-84
2021/08/09 07:05:44;;;;;;;2.03;1.73;;;20.30;81.20;;;20.63;63.42;95398.59;5011706;28;20307;-84
2021/08/09 07:08:16;;;;;;;4.82;1.83;;;20.30;80.50;;;20.73;63.75;95403.31;5012557;28;20256;-83
2021/08/09 07:10:45;;;;;;;1.75;1.65;;;20.40;80.90;;;20.82;63.59;95395.69;5011135;28;20217;-83
2021/08/09 07:13:12;;;;;;;1.67;1.58;;;20.50;80.80;;;20.89;63.57;95399.00;5011539;28;20197;-83
2021/08/09 07:15:39;;;;;;;1.73;1.63;;;20.50;80.80;;;20.92;63.15;95395.84;5011265;28;20217;-84
2021/08/09 07:18:06;;;;;;;1.80;1.70;;;20.60;80.30;;;20.95;62.73;95390.00;4995193;28;20643;-83
2021/08/09 07:20:33;;;;;;;2.05;1.40;;;20.60;79.90;;;20.95;62.33;95391.88;5011754;28;20692;-83
2021/08/09 07:23:02;;;;;;;1.88;1.50;;;20.70;79.30;;;20.92;62.37;95401.19;5015036;28;20200;-83
2021/08/09 07:25:29;;;;;;;1.50;1.40;;;20.70;79.20;;;20.91;62.57;95393.41;5014855;28;20332;-83
2021/08/09 07:27:57;;;;;;;1.65;1.45;;;20.70;79.00;;;20.90;62.27;95389.94;5014795;28;20224;-83
2021/08/09 07:30:26;;;;;;;1.45;1.35;;;20.70;79.00;;;20.98;62.38;95382.59;5015306;28;20247;-83
2021/08/09 07:32:59;;;;;;;2.85;1.40;;;20.70;79.30;;;21.06;62.25;95384.84;5015270;28;20541;-83
2021/08/09 07:35:27;;;;;;;1.85;1.40;;;20.70;79.40;;;21.14;62.29;95384.41;5014963;28;20221;-82
2021/08/09 07:37:55;;;;;;;1.63;1.50;;;20.80;79.50;;;21.21;62.13;95376.22;5014584;28;20336;-83
2021/08/09 07:40:23;;;;;;;1.90;1.80;;;20.80;79.20;;;21.28;62.35;95382.19;5015081;28;20225;-83
2021/08/09 07:42:56;;;;;;;1.50;1.40;;;20.90;79.10;;;21.35;61.69;95380.13;5015474;28;20286;-83
2021/08/09 07:45:24;;;;;;;3.55;1.48;;;21.00;78.80;;;21.45;61.50;95379.44;5014612;28;20633;-83
2021/08/09 07:47:55;;;;;;;1.48;1.38;;;21.00;78.60;;;21.52;61.28;95363.22;5014501;28;20222;-83
2021/08/09 07:50:23;;;;;;;1.67;1.50;;;21.10;78.80;;;21.62;61.37;95366.06;5014502;28;20283;-83
2021/08/09 07:52:51;;;;;;;1.60;1.50;;;21.10;78.70;;;21.70;61.04;95368.28;5014514;28;20269;-83
2021/08/09 07:55:19;;;;;;;1.80;1.23;;;21.20;78.50;;;21.78;61.10;95366.22;5014539;28;20221;-83
2021/08/09 07:57:46;;;;;;;1.77;1.33;;;21.30;78.30;;;21.81;61.12;95366.50;5014728;28;20201;-82
2021/08/09 08:00:15;;;;;;;5.53;1.52;;;21.40;78.10;;;21.84;60.57;95357.22;5014136;28;20267;-83
2021/08/09 08:02:50;;;;;;;1.65;1.40;;;21.40;77.70;;;21.91;60.40;95353.25;5014344;28;20667;-82
2021/08/09 08:05:19;;;;;;;1.60;1.50;;;21.50;77.70;;;21.96;60.28;95354.38;5015013;28;20237;-83
2021/08/09 08:07:48;;;;;;;3.17;1.58;;;21.50;77.60;;;21.98;59.38;95347.72;5014297;28;20684;-83
2021/08/09 08:10:18;;;;;;;1.83;1.63;;;21.60;76.90;;;22.09;59.18;95353.16;5014151;28;20687;-83
2021/08/09 08:12:46;;;;;;;1.90;1.73;;;21.60;76.70;;;22.13;59.06;95355.06;5014486;28;20190;-84
2021/08/09 08:15:17;;;;;;;2.65;1.45;;;21.80;76.70;;;22.14;59.27;95361.22;4998413;28;20233;-84
2021/08/09 08:17:46;;;;;;;1.60;1.50;;;21.80;76.30;;;22.15;58.78;95371.63;4998256;28;20682;-83
2021/08/09 08:20:14;;;;;;;3.10;1.67;;;21.80;76.20;;;22.18;58.74;95376.47;5013105;28;20224;-83
2021/08/09 08:22:41;;;;;;;2.45;1.75;;;21.80;76.20;;;22.20;58.90;95371.69;4997894;28;20196;-83
2021/08/09 08:25:12;;;;;;;1.73;1.63;;;21.90;76.40;;;22.28;58.91;95374.97;5013700;28;20252;-82
2021/08/09 08:27:40;;;;;;;2.92;1.65;;;21.90;76.10;;;22.28;58.75;95367.75;4997754;28;20679;-83
2021/08/09 08:30:09;;;;;;;3.05;1.60;;;21.90;76.40;;;22.38;58.43;95377.75;5014385;28;20248;-85
2021/08/09 08:32:57;;;;;;;2.08;1.50;;;21.90;76.00;;;22.46;58.46;95371.09;5003861;28;20200;-85
2021/08/09 08:35:24;;;;;;;1.63;1.52;;;22.00;76.10;;;22.52;58.58;95362.88;5013394;28;20245;-83
2021/08/09 08:37:54;;;;;;;2.00;1.80;;;22.10;76.00;;;22.59;58.41;95362.66;5029586;28;20207;-84
2021/08/09 08:40:23;;;;;;;1.77;1.67;;;22.10;76.10;;;22.66;58.63;95363.25;5014106;28;20769;-85
2021/08/09 08:42:53;;;;;;;2.50;1.90;;;22.20;76.20;;;22.75;58.58;95370.78;5013990;28;20758;-85
2021/08/09 08:45:22;;;;;;;1.67;1.40;;;22.30;76.20;;;22.81;58.21;95375.09;5030621;28;20242;-84
2021/08/09 08:47:54;;;;;;;2.20;1.55;;;22.30;75.60;;;22.91;57.62;95369.84;5014703;28;20630;-84
2021/08/09 08:50:23;;;;;;;2.35;1.60;;;22.40;75.60;;;23.02;57.05;95363.47;4997897;28;20226;-84
2021/08/09 08:52:52;;;;;;;2.55;1.85;;;22.50;75.40;;;23.15;57.28;95364.06;4998179;28;20203;-85
2021/08/09 08:55:23;;;;;;;3.67;1.60;;;22.60;75.50;;;23.39;57.47;95374.34;5013870;28;20248;-84
2021/08/09 08:57:52;;;;;;;2.78;2.03;;;22.70;75.90;;;23.64;56.96;95366.44;5013973;28;20216;-85
2021/08/09 09:00:21;;;;;;;2.22;1.40;;;22.90;75.70;;;23.95;57.16;95360.38;5030017;28;20287;-84
2021/08/09 09:02:48;;;;;;;3.15;1.50;;;23.10;76.00;;;24.27;57.10;95353.97;5013467;28;20216;-85
2021/08/09 09:05:21;;;;;;;1.40;1.30;;;23.30;75.70;;;24.61;55.61;95367.59;4996925;28;20329;-84
2021/08/09 09:07:54;;;;;;;2.00;1.55;;;23.50;74.60;;;24.85;54.88;95342.13;5013489;28;20189;-84
2021/08/09 09:10:30;;;;;;;2.20;1.50;;;23.80;74.40;;;25.14;54.61;95361.09;4997901;28;20224;-85
2021/08/09 09:13:09;;;;;;;3.20;1.55;;;24.10;73.50;;;25.37;54.29;95358.88;5013759;28;20652;-85
2021/08/09 09:15:57;;;;;;;2.17;1.45;;;24.30;73.60;;;25.58;54.09;95359.59;4997568;28;20324;-86
2021/08/09 09:18:27;;;;;;;1.50;1.40;;;24.50;73.60;;;25.77;54.06;95354.41;5013672;28;20671;-85
2021/08/09 09:20:55;;;;;;;2.53;1.50;;;24.80;73.60;;;25.94;53.55;95363.97;5013320;28;20226;-85
2021/08/09 09:23:24;;;;;;;2.53;1.40;;;25.00;73.00;;;26.09;52.81;95361.22;4996497;28;20292;-85
2021/08/09 09:25:53;;;;;;;5.10;1.50;;;25.20;72.50;;;26.22;53.05;95359.78;5013451;28;20481;-85
2021/08/09 09:28:29;;;;;;;2.47;1.55;;;25.30;72.20;;;26.35;52.72;95361.03;5022233;28;20219;-84
2021/08/09 09:31:02;;;;;;;2.17;1.52;;;25.50;72.30;;;26.42;51.93;95350.75;4994226;28;20671;-85
2021/08/09 09:33:31;;;;;;;1.58;1.48;;;25.60;71.60;;;26.51;52.25;95348.25;4997644;28;20650;-85
2021/08/09 09:36:03;;;;;;;1.80;1.48;;;25.70;71.50;;;26.58;51.62;95337.16;4980740;28;20223;-86
2021/08/09 09:38:43;;;;;;;1.50;1.40;;;25.80;70.50;;;26.66;52.21;95333.88;4996920;28;20602;-85
2021/08/09 09:41:11;;;;;;;1.85;1.40;;;25.90;70.60;;;26.75;51.57;95326.78;4996766;28;20251;-85
2021/08/09 09:43:44;;;;;;;2.72;1.40;;;26.00;70.60;;;26.80;50.97;95334.03;5014831;28;20582;-85
2021/08/09 09:46:26;;;;;;;1.48;1.38;;;26.10;70.10;;;26.84;51.27;95327.78;5015879;28;20313;-85
2021/08/09 09:49:01;;;;;;;1.92;1.77;;;26.20;69.70;;;26.90;51.30;95325.81;5032315;28;20292;-85
2021/08/09 09:51:41;;;;;;;1.45;1.35;;;26.20;70.10;;;26.95;51.07;95319.59;5033767;28;20322;-85
2021/08/09 09:54:09;;;;;;;1.77;1.42;;;26.30;70.10;;;27.03;51.11;95326.25;5027927;28;20222;-85
2021/08/09 09:56:44;;;;;;;1.67;1.52;;;26.40;69.90;;;27.10;50.42;95322.13;5029586;28;20732;-85
2021/08/09 09:59:11;;;;;;;1.70;1.55;;;26.40;68.90;;;27.11;50.66;95321.03;5032634;28;20194;-85
2021/08/09 10:01:39;;;;;;;2.75;1.58;;;26.50;69.60;;;27.15;50.20;95330.13;5032414;28;20718;-86
2021/08/09 10:04:06;;;;;;;2.75;1.48;;;26.50;69.30;;;27.17;49.40;95329.84;5031881;28;20205;-83
2021/08/09 10:06:37;;;;;;;1.80;1.70;;;26.60;68.30;;;27.14;49.64;95317.75;5031324;28;20300;-84
2021/08/09 10:09:08;;;;;;;1.77;1.63;;;26.60;68.30;;;27.22;49.42;95321.72;5018472;28;20205;-82
2021/08/09 10:11:41;;;;;;;2.45;1.67;;;26.60;68.40;;;27.29;49.18;95329.44;5013305;28;20247;-84
2021/08/09 10:14:10;;;;;;;2.05;1.50;;;26.70;68.40;;;27.38;48.84;95326.91;5031919;28;20208;-83
2021/08/09 10:16:39;;;;;;;2.00;1.40;;;26.80;67.70;;;27.50;48.14;95319.22;5028922;28;20220;-85
2021/08/09 10:19:08;;;;;;;1.20;1.20;;;26.90;67.50;;;27.53;48.33;95318.66;5024594;28;20189;-83
2021/08/09 10:21:37;;;;;;;1.60;1.50;;;26.90;67.10;;;27.63;48.49;95326.59;5013101;28;20212;-83
2021/08/09 10:24:05;;;;;;;1.33;1.13;;;27.00;67.40;;;27.73;47.18;95327.53;5009556;28;20224;-87
2021/08/09 10:26:32;;;;;;;1.92;1.20;;;27.10;66.60;;;27.74;47.02;95318.38;5032997;28;20307;-84
2021/08/09 10:29:08;;;;;;;1.35;1.25;;;27.10;65.70;;;27.72;46.26;95313.28;5030452;28;20290;-83
2021/08/09 10:31:47;;;;;;;1.27;1.10;;;27.10;64.80;;;27.65;46.02;95312.84;5022457;28;20306;-84